Terminal Aerodrome Forecast
Issued by NWS

Home | Current Version | Previous Version | Text Only | Print | Product List | Glossary On
Versions: 1 2 3 4 5 6 7 8 9 10 11 12 13 14 15
985
FTUS46 KPDT 250520
TAFALW
TAF
KALW 250520Z 2506/2606 13007KT P6SM SCT090
     FM250900 18009KT P6SM SCT070
     FM251500 21010KT P6SM FEW050 SCT070
     FM260400 17009KT P6SM SCT060=

USA.gov is the U.S. government's official web portal to all federal, state and local government web resources and services.